Time,TemperatureF,DewpointF,PressureIn,WindDirection,WindDirectionDegrees,WindSpeedMPH,WindSpeedGustMPH,Humidity,HourlyPrecipIn,Conditions,Clouds,dailyrainin,SoftwareType,DateUTC
2013-10-28 00:01:00,52.7,51.3,30.09,NW,321,0.0,0.0,95,0.00,,,0.00,meteohub,2013-10-28 04:01:00,
2013-10-28 00:03:00,52.5,51.1,30.09,NW,321,0.0,0.0,95,0.00,,,0.00,meteohub,2013-10-28 04:03:00,
2013-10-28 00:08:00,52.7,51.6,30.09,NW,321,0.0,0.0,96,0.00,,,0.00,meteohub,2013-10-28 04:08:00,
2013-10-28 00:13:00,52.9,51.8,30.09,NW,320,0.0,0.0,96,0.00,,,0.00,meteohub,2013-10-28 04:13:00,
2013-10-28 00:18:00,52.9,51.8,30.09,NW,320,0.0,0.0,96,0.00,,,0.00,meteohub,2013-10-28 04:18:00,
2013-10-28 00:23:00,52.9,51.8,30.08,NW,321,0.0,0.0,96,0.00,,,0.00,meteohub,2013-10-28 04:23:00,
2013-10-28 00:28:00,52.9,51.8,30.07,NW,321,0.0,0.0,96,0.00,,,0.00,meteohub,2013-10-28 04:28:00,
2013-10-28 00:33:00,52.7,51.6,30.08,NW,321,0.0,0.0,96,0.00,,,0.00,meteohub,2013-10-28 04:33:00,
2013-10-28 00:38:00,52.3,51.3,30.08,NW,320,0.0,0.0,96,0.00,,,0.00,meteohub,2013-10-28 04:38:00,
2013-10-28 00:43:00,52.3,51.3,30.07,NNW,330,0.0,0.0,96,0.00,,,0.00,meteohub,2013-10-28 04:43:00,
2013-10-28 00:48:00,52.3,51.3,30.08,NNW,330,0.0,0.0,96,0.00,,,0.00,meteohub,2013-10-28 04:48:00,
2013-10-28 00:53:00,52.2,51.1,30.08,NNW,332,0.0,0.0,96,0.00,,,0.00,meteohub,2013-10-28 04:53:00,
2013-10-28 00:58:00,52.2,51.3,30.08,NNW,330,0.0,0.0,97,0.00,,,0.00,meteohub,2013-10-28 04:58:00,
2013-10-28 01:03:00,52.2,51.3,30.08,NNW,330,0.0,0.0,97,0.00,,,0.00,meteohub,2013-10-28 05:03:00,
2013-10-28 01:08:00,52.0,51.1,30.08,NNW,330,0.0,0.0,97,0.00,,,0.00,meteohub,2013-10-28 05:08:00,
2013-10-28 01:13:00,52.0,51.1,30.09,NNW,330,0.0,0.0,97,0.00,,,0.00,meteohub,2013-10-28 05:13:00,
2013-10-28 01:18:00,52.2,51.3,30.09,NNW,332,0.0,0.0,97,0.00,,,0.00,meteohub,2013-10-28 05:18:00,
2013-10-28 01:23:00,52.2,51.3,30.09,NNW,330,0.0,1.0,97,0.00,,,0.00,meteohub,2013-10-28 05:23:00,
2013-10-28 01:28:00,52.2,51.3,30.09,NNW,330,0.0,1.0,97,0.00,,,0.00,meteohub,2013-10-28 05:28:00,
2013-10-28 01:33:00,52.2,51.3,30.09,NNW,330,0.0,1.0,97,0.00,,,0.00,meteohub,2013-10-28 05:33:00,
2013-10-28 01:38:00,52.2,51.3,30.09,NNW,330,0.0,1.0,97,0.00,,,0.00,meteohub,2013-10-28 05:38:00,
2013-10-28 01:43:00,52.3,51.4,30.09,NNW,330,0.0,1.0,97,0.00,,,0.00,meteohub,2013-10-28 05:43:00,
2013-10-28 01:48:00,52.3,51.4,30.09,NNW,330,0.0,1.0,97,0.00,,,0.00,meteohub,2013-10-28 05:48:00,
2013-10-28 01:53:00,52.3,51.4,30.09,NNW,330,0.0,1.0,97,0.00,,,0.00,meteohub,2013-10-28 05:53:00,
2013-10-28 01:58:00,52.3,51.4,30.08,NNW,330,0.0,1.0,97,0.00,,,0.00,meteohub,2013-10-28 05:58:00,
2013-10-28 02:03:00,52.3,51.4,30.09,NNW,330,0.0,1.0,97,0.00,,,0.00,meteohub,2013-10-28 06:03:00,
2013-10-28 02:08:00,52.3,51.4,30.08,NNW,330,0.0,0.0,97,0.00,,,0.00,meteohub,2013-10-28 06:08:00,
2013-10-28 02:13:00,52.3,51.3,30.09,NNW,330,0.0,0.0,96,0.00,,,0.00,meteohub,2013-10-28 06:13:00,
2013-10-28 02:18:00,52.2,51.1,30.09,NNW,330,0.0,0.0,96,0.00,,,0.00,meteohub,2013-10-28 06:18:00,
2013-10-28 02:23:00,52.0,50.9,30.09,NNW,330,0.0,0.0,96,0.00,,,0.00,meteohub,2013-10-28 06:23:00,
2013-10-28 02:28:00,52.0,51.1,30.09,NNW,330,0.0,0.0,97,0.00,,,0.00,meteohub,2013-10-28 06:28:00,
2013-10-28 02:33:00,51.6,50.5,30.09,NNW,330,0.0,0.0,96,0.00,,,0.00,meteohub,2013-10-28 06:33:00,
2013-10-28 02:38:00,51.4,50.4,30.09,NNW,330,0.0,0.0,96,0.00,,,0.00,meteohub,2013-10-28 06:38:00,
2013-10-28 02:43:00,51.1,50.0,30.09,NNW,330,0.0,0.0,96,0.00,,,0.00,meteohub,2013-10-28 06:43:00,
2013-10-28 02:48:00,50.9,49.8,30.09,NNW,330,0.0,0.0,96,0.00,,,0.00,meteohub,2013-10-28 06:48:00,
2013-10-28 02:53:00,50.7,49.8,30.09,NNW,330,0.0,0.0,97,0.00,,,0.00,meteohub,2013-10-28 06:53:00,
2013-10-28 02:58:00,50.7,49.8,30.09,NNW,330,0.0,0.0,97,0.00,,,0.00,meteohub,2013-10-28 06:58:00,
2013-10-28 03:03:00,50.7,50.2,30.09,NNW,332,0.0,0.0,98,0.00,,,0.00,meteohub,2013-10-28 07:03:00,
2013-10-28 03:08:00,50.5,49.6,30.09,NNW,331,0.0,0.0,97,0.00,,,0.00,meteohub,2013-10-28 07:08:00,
2013-10-28 03:13:00,50.5,50.0,30.09,NNW,330,0.0,0.0,98,0.00,,,0.00,meteohub,2013-10-28 07:13:00,
2013-10-28 03:18:00,50.5,50.0,30.09,NNW,330,0.0,0.0,98,0.00,,,0.00,meteohub,2013-10-28 07:18:00,
2013-10-28 03:23:00,50.7,50.2,30.09,NNW,330,0.0,0.0,98,0.00,,,0.00,meteohub,2013-10-28 07:23:00,
2013-10-28 03:28:00,50.9,50.4,30.09,NNW,330,0.0,0.0,98,0.00,,,0.00,meteohub,2013-10-28 07:28:00,
2013-10-28 03:33:00,51.1,50.5,30.09,NNW,331,0.0,0.0,98,0.00,,,0.00,meteohub,2013-10-28 07:33:00,
2013-10-28 03:38:00,51.1,50.5,30.09,NNW,330,0.0,0.0,98,0.00,,,0.00,meteohub,2013-10-28 07:38:00,
2013-10-28 03:43:00,51.1,50.5,30.09,NNW,330,0.0,0.0,98,0.00,,,0.00,meteohub,2013-10-28 07:43:00,
2013-10-28 03:48:00,51.3,50.7,30.10,NNW,330,0.0,0.0,98,0.00,,,0.00,meteohub,2013-10-28 07:48:00,
2013-10-28 03:53:00,51.4,50.9,30.09,NNW,330,0.0,0.0,98,0.00,,,0.00,meteohub,2013-10-28 07:53:00,
2013-10-28 03:58:00,51.6,51.1,30.09,NNW,330,0.0,0.0,98,0.00,,,0.00,meteohub,2013-10-28 07:58:00,
2013-10-28 04:03:00,52.0,51.1,30.10,NNW,330,0.0,0.0,97,0.00,,,0.00,meteohub,2013-10-28 08:03:00,
2013-10-28 04:08:00,52.2,51.3,30.10,NNW,330,0.0,0.0,97,0.00,,,0.00,meteohub,2013-10-28 08:08:00,
2013-10-28 04:13:00,52.2,51.1,30.10,NNW,330,0.0,0.0,96,0.00,,,0.00,meteohub,2013-10-28 08:13:00,
2013-10-28 04:18:00,52.2,51.1,30.10,NNW,330,0.0,0.0,96,0.00,,,0.00,meteohub,2013-10-28 08:18:00,
2013-10-28 04:23:00,52.3,51.3,30.11,NNW,330,0.0,0.0,96,0.00,,,0.00,meteohub,2013-10-28 08:23:00,
2013-10-28 04:29:00,52.2,51.1,30.10,NNW,330,1.0,0.0,96,0.00,,,0.00,meteohub,2013-10-28 08:29:00,
2013-10-28 04:34:00,52.2,51.1,30.10,NNW,330,1.0,0.0,96,0.00,,,0.00,meteohub,2013-10-28 08:34:00,
2013-10-28 04:39:00,52.0,50.9,30.11,NNW,330,0.0,1.0,96,0.00,,,0.00,meteohub,2013-10-28 08:39:00,
2013-10-28 04:44:00,52.2,51.1,30.10,NNW,330,0.0,1.0,96,0.00,,,0.00,meteohub,2013-10-28 08:44:00,
2013-10-28 04:49:00,52.9,51.8,30.10,NNW,330,0.0,1.0,96,0.00,,,0.00,meteohub,2013-10-28 08:49:00,
2013-10-28 04:54:00,53.2,51.6,30.10,NNW,330,0.0,1.0,94,0.00,,,0.00,meteohub,2013-10-28 08:54:00,
2013-10-28 04:59:00,53.8,51.8,30.10,NNW,330,0.0,1.0,93,0.00,,,0.00,meteohub,2013-10-28 08:59:00,
2013-10-28 05:04:00,54.3,52.0,30.10,NW,326,0.0,1.0,92,0.00,,,0.00,meteohub,2013-10-28 09:04:00,
2013-10-28 05:09:00,54.9,52.0,30.10,NNW,328,0.0,1.0,90,0.00,,,0.00,meteohub,2013-10-28 09:09:00,
2013-10-28 05:14:00,55.0,52.5,30.10,NNW,328,0.0,1.0,91,0.00,,,0.00,meteohub,2013-10-28 09:14:00,
2013-10-28 05:19:00,54.9,52.5,30.10,NNW,328,0.0,1.0,92,0.00,,,0.00,meteohub,2013-10-28 09:19:00,
2013-10-28 05:24:00,54.5,52.2,30.11,NNW,328,0.0,1.0,92,0.00,,,0.00,meteohub,2013-10-28 09:24:00,
2013-10-28 05:29:00,54.0,51.6,30.11,NNW,328,0.0,0.0,92,0.00,,,0.00,meteohub,2013-10-28 09:29:00,
2013-10-28 05:34:00,53.8,51.8,30.11,NNW,328,0.0,0.0,93,0.00,,,0.00,meteohub,2013-10-28 09:34:00,
2013-10-28 05:39:00,53.4,51.4,30.11,NNW,328,0.0,0.0,93,0.00,,,0.00,meteohub,2013-10-28 09:39:00,
2013-10-28 05:44:00,53.4,51.8,30.11,NNW,328,0.0,0.0,94,0.00,,,0.00,meteohub,2013-10-28 09:44:00,
2013-10-28 05:49:00,53.2,51.8,30.11,NNW,328,0.0,0.0,95,0.00,,,0.00,meteohub,2013-10-28 09:49:00,
2013-10-28 05:54:00,53.4,52.0,30.12,NNW,328,0.0,0.0,95,0.00,,,0.00,meteohub,2013-10-28 09:54:00,
2013-10-28 05:59:00,53.8,52.2,30.12,NNW,327,0.0,0.0,94,0.00,,,0.00,meteohub,2013-10-28 09:59:00,
2013-10-28 06:04:00,53.8,52.2,30.12,NNW,328,0.0,0.0,94,0.00,,,0.00,meteohub,2013-10-28 10:04:00,
2013-10-28 06:09:00,54.0,52.3,30.12,NNW,328,0.0,0.0,94,0.00,,,0.00,meteohub,2013-10-28 10:09:00,
2013-10-28 06:14:00,53.8,52.2,30.12,NNW,328,0.0,0.0,94,0.00,,,0.00,meteohub,2013-10-28 10:14:00,
2013-10-28 06:19:00,53.4,51.8,30.13,NNW,327,0.0,0.0,94,0.00,,,0.00,meteohub,2013-10-28 10:19:00,
2013-10-28 06:24:00,53.2,51.8,30.13,NNW,328,0.0,0.0,95,0.00,,,0.00,meteohub,2013-10-28 10:24:00,
2013-10-28 06:29:00,53.1,51.6,30.13,NNW,328,0.0,0.0,95,0.00,,,0.00,meteohub,2013-10-28 10:29:00,
2013-10-28 06:34:00,53.1,51.6,30.13,NNW,328,0.0,0.0,95,0.00,,,0.00,meteohub,2013-10-28 10:34:00,
2013-10-28 06:39:00,53.1,51.6,30.13,NNW,328,0.0,0.0,95,0.00,,,0.00,meteohub,2013-10-28 10:39:00,
2013-10-28 06:44:00,53.2,51.8,30.13,NNW,328,1.0,0.0,95,0.00,,,0.00,meteohub,2013-10-28 10:44:00,
2013-10-28 06:49:00,53.2,51.8,30.13,NNW,328,1.0,1.0,95,0.00,,,0.00,meteohub,2013-10-28 10:49:00,
2013-10-28 06:54:00,53.2,51.8,30.14,NNW,328,0.0,1.0,95,0.00,,,0.00,meteohub,2013-10-28 10:54:00,
2013-10-28 06:59:00,53.2,51.8,30.14,NNW,328,0.0,1.0,95,0.00,,,0.00,meteohub,2013-10-28 10:59:00,
2013-10-28 07:04:00,53.2,51.8,30.14,NNW,327,0.0,1.0,95,0.00,,,0.00,meteohub,2013-10-28 11:04:00,
2013-10-28 07:09:00,53.4,52.0,30.14,West,269,0.0,1.0,95,0.00,,,0.00,meteohub,2013-10-28 11:09:00,
2013-10-28 07:14:00,53.8,52.2,30.14,West,273,0.0,1.0,94,0.00,,,0.00,meteohub,2013-10-28 11:14:00,
2013-10-28 07:19:00,54.0,52.0,30.15,NW,307,0.0,1.0,93,0.00,,,0.00,meteohub,2013-10-28 11:19:00,
2013-10-28 07:24:00,54.1,52.2,30.15,NW,306,0.0,1.0,93,0.00,,,0.00,meteohub,2013-10-28 11:24:00,
2013-10-28 07:29:00,54.3,52.3,30.15,NW,307,0.0,1.0,93,0.00,,,0.00,meteohub,2013-10-28 11:29:00,
2013-10-28 07:34:00,54.3,52.3,30.15,NW,307,0.0,0.0,93,0.00,,,0.00,meteohub,2013-10-28 11:34:00,
2013-10-28 07:39:00,54.1,52.5,30.15,NW,307,0.0,0.0,94,0.00,,,0.00,meteohub,2013-10-28 11:39:00,
2013-10-28 07:44:00,54.1,52.5,30.15,NW,307,0.0,0.0,94,0.00,,,0.00,meteohub,2013-10-28 11:44:00,
2013-10-28 07:49:00,54.3,52.9,30.15,NW,307,0.0,1.0,95,0.00,,,0.00,meteohub,2013-10-28 11:49:00,
2013-10-28 07:54:00,54.1,52.7,30.16,NW,306,0.0,1.0,95,0.00,,,0.00,meteohub,2013-10-28 11:54:00,
2013-10-28 07:59:00,54.1,52.7,30.16,NW,306,0.0,1.0,95,0.00,,,0.00,meteohub,2013-10-28 11:59:00,
2013-10-28 08:04:00,54.1,53.1,30.16,NW,306,0.0,0.0,96,0.00,,,0.00,meteohub,2013-10-28 12:04:00,
2013-10-28 08:09:00,54.0,52.9,30.16,NW,307,0.0,0.0,96,0.00,,,0.00,meteohub,2013-10-28 12:09:00,
2013-10-28 08:14:00,54.1,53.1,30.16,NW,307,0.0,1.0,96,0.00,,,0.00,meteohub,2013-10-28 12:14:00,
2013-10-28 08:19:00,54.1,53.2,30.16,NW,306,0.0,1.0,97,0.00,,,0.00,meteohub,2013-10-28 12:19:00,
2013-10-28 08:24:00,54.3,53.4,30.16,NW,306,0.0,0.0,97,0.00,,,0.00,meteohub,2013-10-28 12:24:00,
2013-10-28 08:29:00,54.5,53.6,30.16,NW,307,0.0,0.0,97,0.00,,,0.00,meteohub,2013-10-28 12:29:00,
2013-10-28 08:34:00,54.3,53.4,30.16,NW,306,0.0,0.0,97,0.00,,,0.00,meteohub,2013-10-28 12:34:00,
2013-10-28 08:39:00,54.1,53.2,30.17,NW,307,0.0,0.0,97,0.01,,,0.01,meteohub,2013-10-28 12:39:00,
2013-10-28 08:44:00,54.1,53.2,30.17,NW,307,0.0,0.0,97,0.01,,,0.01,meteohub,2013-10-28 12:44:00,
2013-10-28 08:49:00,54.1,53.2,30.17,NW,307,0.0,0.0,97,0.01,,,0.01,meteohub,2013-10-28 12:49:00,
2013-10-28 08:54:00,54.0,53.1,30.17,NW,307,0.0,0.0,97,0.01,,,0.01,meteohub,2013-10-28 12:54:00,
2013-10-28 08:59:00,54.0,53.1,30.17,NW,307,0.0,0.0,97,0.01,,,0.01,meteohub,2013-10-28 12:59:00,
2013-10-28 09:04:00,54.0,53.4,30.17,NW,307,0.0,0.0,98,0.01,,,0.01,meteohub,2013-10-28 13:04:00,
2013-10-28 09:09:00,54.1,53.6,30.17,NW,307,0.0,0.0,98,0.01,,,0.01,meteohub,2013-10-28 13:09:00,
2013-10-28 09:14:00,54.3,53.8,30.17,SSE,153,0.0,0.0,98,0.01,,,0.01,meteohub,2013-10-28 13:14:00,
2013-10-28 09:19:00,54.7,54.1,30.17,SSE,157,0.0,0.0,98,0.01,,,0.01,meteohub,2013-10-28 13:19:00,
2013-10-28 09:24:00,54.9,54.0,30.18,SE,143,0.0,0.0,97,0.01,,,0.01,meteohub,2013-10-28 13:24:00,
2013-10-28 09:29:00,55.0,54.1,30.18,SE,131,0.0,0.0,97,0.01,,,0.01,meteohub,2013-10-28 13:29:00,
2013-10-28 09:34:00,55.2,54.3,30.18,SE,131,0.0,1.0,97,0.01,,,0.01,meteohub,2013-10-28 13:34:00,
2013-10-28 09:39:00,55.4,54.5,30.18,SE,127,0.0,1.0,97,0.00,,,0.01,meteohub,2013-10-28 13:39:00,
2013-10-28 09:44:00,55.6,54.7,30.19,SE,127,0.0,1.0,97,0.00,,,0.01,meteohub,2013-10-28 13:44:00,
2013-10-28 09:49:00,55.8,54.9,30.19,SE,127,0.0,1.0,97,0.00,,,0.01,meteohub,2013-10-28 13:49:00,
2013-10-28 09:54:00,55.8,54.9,30.19,SE,127,0.0,1.0,97,0.00,,,0.01,meteohub,2013-10-28 13:54:00,
2013-10-28 09:59:00,56.1,55.6,30.19,SE,127,0.0,0.0,98,0.00,,,0.01,meteohub,2013-10-28 13:59:00,
2013-10-28 10:04:00,56.5,55.6,30.19,SE,127,0.0,1.0,97,0.00,,,0.01,meteohub,2013-10-28 14:04:00,
2013-10-28 10:09:00,56.7,55.8,30.19,SE,127,0.0,1.0,97,0.00,,,0.01,meteohub,2013-10-28 14:09:00,
2013-10-28 10:14:00,56.8,55.9,30.19,SE,127,0.0,1.0,97,0.00,,,0.01,meteohub,2013-10-28 14:14:00,
2013-10-28 10:19:00,57.0,56.1,30.19,SE,127,0.0,0.0,97,0.00,,,0.01,meteohub,2013-10-28 14:19:00,
2013-10-28 10:24:00,57.2,55.4,30.19,ESE,108,0.0,0.0,94,0.00,,,0.01,meteohub,2013-10-28 14:24:00,
2013-10-28 10:29:00,57.7,55.9,30.19,ESE,107,0.0,1.0,94,0.00,,,0.01,meteohub,2013-10-28 14:29:00,
2013-10-28 10:34:00,58.1,55.8,30.19,East,100,1.0,1.0,92,0.00,,,0.01,meteohub,2013-10-28 14:34:00,
2013-10-28 10:39:00,58.6,56.7,30.19,East,100,0.0,1.0,93,0.00,,,0.01,meteohub,2013-10-28 14:39:00,
2013-10-28 10:44:00,59.0,57.0,30.19,East,100,0.0,1.0,93,0.00,,,0.01,meteohub,2013-10-28 14:44:00,
2013-10-28 10:49:00,59.4,57.6,30.19,East,101,0.0,1.0,94,0.00,,,0.01,meteohub,2013-10-28 14:49:00,
2013-10-28 10:54:00,59.5,57.7,30.19,East,101,0.0,1.0,94,0.00,,,0.01,meteohub,2013-10-28 14:54:00,
2013-10-28 10:59:00,59.9,58.1,30.19,East,100,0.0,1.0,94,0.00,,,0.01,meteohub,2013-10-28 14:59:00,
2013-10-28 11:04:00,60.3,58.5,30.19,East,101,0.0,1.0,94,0.00,,,0.01,meteohub,2013-10-28 15:04:00,
2013-10-28 11:09:00,60.4,58.5,30.19,East,100,0.0,0.0,93,0.00,,,0.01,meteohub,2013-10-28 15:09:00,
2013-10-28 11:14:00,60.6,58.6,30.20,East,100,0.0,0.0,93,0.00,,,0.01,meteohub,2013-10-28 15:14:00,
2013-10-28 11:20:00,60.6,58.6,30.20,East,100,0.0,0.0,93,0.00,,,0.01,meteohub,2013-10-28 15:20:00,
2013-10-28 11:25:00,61.0,59.0,30.20,East,101,0.0,0.0,93,0.00,,,0.01,meteohub,2013-10-28 15:25:00,
2013-10-28 11:30:00,61.2,58.5,30.20,East,101,0.0,0.0,91,0.00,,,0.01,meteohub,2013-10-28 15:30:00,
2013-10-28 11:35:00,61.3,59.0,30.21,East,101,0.0,0.0,92,0.00,,,0.01,meteohub,2013-10-28 15:35:00,
2013-10-28 11:40:00,61.3,58.1,30.21,East,100,0.0,0.0,89,0.00,,,0.01,meteohub,2013-10-28 15:40:00,
2013-10-28 11:45:00,61.5,57.9,30.21,East,100,0.0,0.0,88,0.00,,,0.01,meteohub,2013-10-28 15:45:00,
2013-10-28 11:50:00,61.5,57.9,30.21,East,101,0.0,0.0,88,0.00,,,0.01,meteohub,2013-10-28 15:50:00,
2013-10-28 11:55:00,61.9,58.3,30.21,East,101,0.0,0.0,88,0.00,,,0.01,meteohub,2013-10-28 15:55:00,
2013-10-28 12:00:00,61.9,58.3,30.21,East,101,0.0,1.0,88,0.00,,,0.01,meteohub,2013-10-28 16:00:00,
2013-10-28 12:05:00,62.1,58.5,30.21,East,101,0.0,1.0,88,0.00,,,0.01,meteohub,2013-10-28 16:05:00,
2013-10-28 12:10:00,62.1,58.1,30.21,East,101,0.0,0.0,87,0.00,,,0.01,meteohub,2013-10-28 16:10:00,
2013-10-28 12:15:00,61.9,57.4,30.21,East,101,0.0,0.0,85,0.00,,,0.01,meteohub,2013-10-28 16:15:00,
2013-10-28 12:20:00,61.3,56.1,30.21,WSW,254,0.0,0.0,83,0.00,,,0.01,meteohub,2013-10-28 16:20:00,
2013-10-28 12:25:00,61.3,56.8,30.21,WSW,255,0.0,1.0,85,0.00,,,0.01,meteohub,2013-10-28 16:25:00,
2013-10-28 12:30:00,61.2,56.3,30.21,WSW,255,0.0,1.0,84,0.00,,,0.01,meteohub,2013-10-28 16:30:00,
2013-10-28 12:35:00,61.3,57.2,30.21,WSW,254,0.0,1.0,86,0.00,,,0.01,meteohub,2013-10-28 16:35:00,
2013-10-28 12:40:00,61.5,56.7,30.21,WSW,255,0.0,1.0,84,0.00,,,0.01,meteohub,2013-10-28 16:40:00,
2013-10-28 12:45:00,61.9,56.7,30.21,WSW,254,0.0,1.0,83,0.00,,,0.01,meteohub,2013-10-28 16:45:00,
2013-10-28 12:50:00,61.9,56.7,30.21,WSW,254,0.0,1.0,83,0.00,,,0.01,meteohub,2013-10-28 16:50:00,
2013-10-28 12:55:00,61.9,56.7,30.20,WSW,255,1.0,1.0,83,0.00,,,0.01,meteohub,2013-10-28 16:55:00,
2013-10-28 13:00:00,61.9,57.0,30.20,WSW,254,0.0,1.0,84,0.00,,,0.01,meteohub,2013-10-28 17:00:00,
2013-10-28 13:05:00,62.4,57.2,30.19,WSW,255,0.0,1.0,83,0.00,,,0.01,meteohub,2013-10-28 17:05:00,
2013-10-28 13:10:00,62.4,56.5,30.19,WSW,256,0.0,1.0,81,0.00,,,0.01,meteohub,2013-10-28 17:10:00,
2013-10-28 13:15:00,62.4,57.2,30.19,WSW,256,0.0,1.0,83,0.00,,,0.01,meteohub,2013-10-28 17:15:00,
2013-10-28 13:20:00,62.4,56.1,30.19,WSW,255,0.0,1.0,80,0.00,,,0.01,meteohub,2013-10-28 17:20:00,
2013-10-28 13:25:00,62.8,57.6,30.19,WSW,255,0.0,1.0,83,0.00,,,0.01,meteohub,2013-10-28 17:25:00,
2013-10-28 13:30:00,63.0,57.4,30.19,WSW,256,0.0,1.0,82,0.00,,,0.01,meteohub,2013-10-28 17:30:00,
2013-10-28 13:35:00,63.1,56.8,30.19,WSW,255,0.0,1.0,80,0.00,,,0.01,meteohub,2013-10-28 17:35:00,
2013-10-28 13:40:00,63.3,57.4,30.18,WSW,255,0.0,1.0,81,0.00,,,0.01,meteohub,2013-10-28 17:40:00,
2013-10-28 13:45:00,63.3,55.6,30.18,WSW,256,0.0,1.0,76,0.00,,,0.01,meteohub,2013-10-28 17:45:00,
2013-10-28 13:50:00,63.7,56.3,30.18,WSW,256,0.0,1.0,77,0.00,,,0.01,meteohub,2013-10-28 17:50:00,
2013-10-28 13:55:00,63.7,55.9,30.18,West,263,0.0,1.0,76,0.00,,,0.01,meteohub,2013-10-28 17:55:00,
2013-10-28 14:00:00,64.0,56.7,30.18,West,273,0.0,1.0,77,0.00,,,0.01,meteohub,2013-10-28 18:00:00,
2013-10-28 14:05:00,64.6,56.8,30.18,NNE,28,0.0,1.0,76,0.00,,,0.01,meteohub,2013-10-28 18:05:00,
2013-10-28 14:10:00,64.6,56.1,30.17,WNW,286,1.0,1.0,74,0.00,,,0.01,meteohub,2013-10-28 18:10:00,
2013-10-28 14:15:00,64.8,57.4,30.17,WNW,288,0.0,1.0,77,0.00,,,0.01,meteohub,2013-10-28 18:15:00,
2013-10-28 14:20:00,64.9,57.2,30.17,WNW,298,1.0,1.0,76,0.00,,,0.01,meteohub,2013-10-28 18:20:00,
2013-10-28 14:25:00,65.1,57.4,30.17,SSW,205,0.0,1.0,76,0.00,,,0.01,meteohub,2013-10-28 18:25:00,
2013-10-28 14:30:00,65.1,57.0,30.17,SSW,206,0.0,1.0,75,0.00,,,0.01,meteohub,2013-10-28 18:30:00,
2013-10-28 14:35:00,65.1,56.7,30.17,West,268,1.0,1.0,74,0.00,,,0.01,meteohub,2013-10-28 18:35:00,
2013-10-28 14:40:00,64.9,56.5,30.17,West,276,2.0,2.0,74,0.00,,,0.01,meteohub,2013-10-28 18:40:00,
2013-10-28 14:45:00,64.8,56.7,30.17,WSW,254,0.0,2.0,75,0.00,,,0.01,meteohub,2013-10-28 18:45:00,
2013-10-28 14:50:00,64.9,56.8,30.17,SSW,211,0.0,3.0,75,0.00,,,0.01,meteohub,2013-10-28 18:50:00,
2013-10-28 14:55:00,65.1,56.3,30.16,WNW,291,0.0,2.0,73,0.00,,,0.01,meteohub,2013-10-28 18:55:00,
2013-10-28 15:00:00,65.5,57.4,30.16,WNW,291,0.0,2.0,75,0.00,,,0.01,meteohub,2013-10-28 19:00:00,
2013-10-28 15:05:00,65.8,58.1,30.16,WNW,287,1.0,2.0,76,0.00,,,0.01,meteohub,2013-10-28 19:05:00,
2013-10-28 15:10:00,66.0,57.6,30.16,WSW,253,2.0,2.0,74,0.00,,,0.01,meteohub,2013-10-28 19:10:00,
2013-10-28 15:15:00,66.6,58.1,30.15,NW,315,0.0,2.0,74,0.00,,,0.01,meteohub,2013-10-28 19:15:00,
2013-10-28 15:20:00,66.9,56.8,30.16,SE,127,1.0,3.0,70,0.00,,,0.01,meteohub,2013-10-28 19:20:00,
2013-10-28 15:25:00,66.9,56.5,30.16,East,85,2.0,3.0,69,0.00,,,0.01,meteohub,2013-10-28 19:25:00,
2013-10-28 15:30:00,66.7,56.3,30.16,ESE,116,2.0,3.0,69,0.00,,,0.01,meteohub,2013-10-28 19:30:00,
2013-10-28 15:35:00,66.9,56.5,30.15,SSE,158,1.0,5.0,69,0.00,,,0.01,meteohub,2013-10-28 19:35:00,
2013-10-28 15:40:00,67.1,56.7,30.15,SW,236,1.0,5.0,69,0.00,,,0.01,meteohub,2013-10-28 19:40:00,
2013-10-28 15:45:00,66.9,55.9,30.15,ESE,113,0.0,4.0,68,0.00,,,0.01,meteohub,2013-10-28 19:45:00,
2013-10-28 15:50:00,66.7,55.4,30.15,ESE,121,1.0,4.0,67,0.00,,,0.01,meteohub,2013-10-28 19:50:00,
2013-10-28 15:55:00,66.7,55.8,30.15,West,262,2.0,2.0,68,0.00,,,0.01,meteohub,2013-10-28 19:55:00,
2013-10-28 16:00:00,66.7,56.7,30.15,WNW,284,1.0,2.0,70,0.00,,,0.01,meteohub,2013-10-28 20:00:00,
2013-10-28 16:05:00,66.7,55.4,30.15,SE,125,0.0,3.0,67,0.00,,,0.01,meteohub,2013-10-28 20:05:00,
2013-10-28 16:10:00,66.4,55.6,30.15,ESE,121,0.0,3.0,68,0.00,,,0.01,meteohub,2013-10-28 20:10:00,
2013-10-28 16:15:00,66.0,55.9,30.15,SE,132,1.0,3.0,70,0.00,,,0.01,meteohub,2013-10-28 20:15:00,
2013-10-28 16:20:00,65.8,55.8,30.15,SW,226,0.0,3.0,70,0.00,,,0.01,meteohub,2013-10-28 20:20:00,
2013-10-28 16:25:00,65.8,56.1,30.15,West,271,0.0,3.0,71,0.00,,,0.01,meteohub,2013-10-28 20:25:00,
2013-10-28 16:30:00,65.8,57.0,30.15,West,268,0.0,4.0,73,0.00,,,0.01,meteohub,2013-10-28 20:30:00,
2013-10-28 16:35:00,65.7,55.9,30.15,SE,131,0.0,4.0,71,0.00,,,0.01,meteohub,2013-10-28 20:35:00,
2013-10-28 16:40:00,65.5,55.4,30.16,ESE,110,1.0,1.0,70,0.00,,,0.01,meteohub,2013-10-28 20:40:00,
2013-10-28 16:45:00,65.3,55.2,30.16,ESE,110,0.0,2.0,70,0.00,,,0.01,meteohub,2013-10-28 20:45:00,
2013-10-28 16:50:00,65.5,54.3,30.15,ESE,111,2.0,2.0,67,0.00,,,0.01,meteohub,2013-10-28 20:50:00,
2013-10-28 16:55:00,65.7,54.9,30.15,ENE,65,0.0,2.0,68,0.00,,,0.01,meteohub,2013-10-28 20:55:00,
2013-10-28 17:00:00,65.8,55.8,30.15,ENE,65,0.0,2.0,70,0.00,,,0.01,meteohub,2013-10-28 21:00:00,
2013-10-28 17:05:00,65.8,55.8,30.15,ENE,65,0.0,2.0,70,0.00,,,0.01,meteohub,2013-10-28 21:05:00,
2013-10-28 17:10:00,65.8,55.0,30.16,ENE,67,1.0,1.0,68,0.00,,,0.01,meteohub,2013-10-28 21:10:00,
2013-10-28 17:15:00,65.7,54.9,30.15,ENE,65,0.0,1.0,68,0.00,,,0.01,meteohub,2013-10-28 21:15:00,
2013-10-28 17:21:00,65.3,54.1,30.16,East,97,1.0,1.0,67,0.00,,,0.01,meteohub,2013-10-28 21:21:00,
2013-10-28 17:26:00,64.9,54.1,30.16,East,98,0.0,1.0,68,0.00,,,0.01,meteohub,2013-10-28 21:26:00,
2013-10-28 17:31:00,64.6,55.0,30.16,East,98,0.0,1.0,71,0.00,,,0.01,meteohub,2013-10-28 21:31:00,
2013-10-28 17:36:00,64.2,55.0,30.16,SSW,193,0.0,1.0,72,0.00,,,0.01,meteohub,2013-10-28 21:36:00,
2013-10-28 17:41:00,63.7,54.5,30.16,East,94,0.0,1.0,72,0.00,,,0.01,meteohub,2013-10-28 21:41:00,
2013-10-28 17:46:00,63.5,54.3,30.16,East,94,1.0,1.0,72,0.00,,,0.01,meteohub,2013-10-28 21:46:00,
2013-10-28 17:51:00,63.3,53.8,30.17,NE,45,0.0,1.0,71,0.00,,,0.01,meteohub,2013-10-28 21:51:00,
2013-10-28 17:56:00,63.3,54.9,30.17,NE,45,0.0,1.0,74,0.00,,,0.01,meteohub,2013-10-28 21:56:00,
2013-10-28 18:01:00,63.1,54.3,30.17,NE,45,0.0,1.0,73,0.00,,,0.01,meteohub,2013-10-28 22:01:00,
2013-10-28 18:06:00,63.1,54.7,30.17,NE,45,0.0,0.0,74,0.00,,,0.01,meteohub,2013-10-28 22:06:00,
2013-10-28 18:11:00,62.8,54.0,30.17,NE,45,0.0,1.0,73,0.00,,,0.01,meteohub,2013-10-28 22:11:00,
2013-10-28 18:16:00,62.4,54.0,30.17,West,271,0.0,1.0,74,0.00,,,0.01,meteohub,2013-10-28 22:16:00,
2013-10-28 18:21:00,62.1,54.0,30.17,West,271,0.0,1.0,75,0.00,,,0.01,meteohub,2013-10-28 22:21:00,
2013-10-28 18:26:00,61.9,53.8,30.17,West,271,0.0,1.0,75,0.00,,,0.01,meteohub,2013-10-28 22:26:00,
2013-10-28 18:31:00,61.5,53.6,30.17,West,271,0.0,0.0,75,0.00,,,0.01,meteohub,2013-10-28 22:31:00,
2013-10-28 18:36:00,61.5,54.0,30.17,West,271,0.0,0.0,76,0.00,,,0.01,meteohub,2013-10-28 22:36:00,
2013-10-28 18:41:00,61.3,54.1,30.17,West,271,0.0,0.0,77,0.00,,,0.01,meteohub,2013-10-28 22:41:00,
2013-10-28 18:46:00,61.2,54.0,30.17,West,271,0.0,0.0,77,0.00,,,0.01,meteohub,2013-10-28 22:46:00,
2013-10-28 18:51:00,61.0,53.8,30.17,West,271,0.0,0.0,77,0.00,,,0.01,meteohub,2013-10-28 22:51:00,
2013-10-28 18:56:00,60.6,54.1,30.17,West,271,0.0,0.0,79,0.00,,,0.01,meteohub,2013-10-28 22:56:00,
2013-10-28 19:01:00,60.3,54.1,30.17,West,271,0.0,0.0,80,0.00,,,0.01,meteohub,2013-10-28 23:01:00,
2013-10-28 19:06:00,60.1,54.0,30.17,West,272,0.0,0.0,80,0.00,,,0.01,meteohub,2013-10-28 23:06:00,
2013-10-28 19:11:00,59.7,54.0,30.18,West,271,0.0,0.0,81,0.00,,,0.01,meteohub,2013-10-28 23:11:00,
2013-10-28 19:16:00,59.5,53.8,30.18,West,271,0.0,0.0,81,0.00,,,0.01,meteohub,2013-10-28 23:16:00,
2013-10-28 19:21:00,59.4,53.8,30.18,West,272,0.0,0.0,82,0.00,,,0.01,meteohub,2013-10-28 23:21:00,
2013-10-28 19:26:00,59.0,53.6,30.18,West,271,0.0,0.0,82,0.00,,,0.01,meteohub,2013-10-28 23:26:00,
2013-10-28 19:31:00,58.8,53.4,30.19,West,271,0.0,0.0,82,0.00,,,0.01,meteohub,2013-10-28 23:31:00,
2013-10-28 19:36:00,58.8,53.6,30.19,West,271,0.0,0.0,83,0.00,,,0.01,meteohub,2013-10-28 23:36:00,
2013-10-28 19:41:00,58.8,53.6,30.19,West,271,0.0,1.0,83,0.00,,,0.01,meteohub,2013-10-28 23:41:00,
2013-10-28 19:46:00,58.6,53.8,30.19,West,271,0.0,1.0,84,0.00,,,0.01,meteohub,2013-10-28 23:46:00,
2013-10-28 19:51:00,58.5,53.6,30.19,West,271,0.0,1.0,84,0.00,,,0.01,meteohub,2013-10-28 23:51:00,
2013-10-28 19:56:00,58.5,53.6,30.19,West,271,0.0,1.0,84,0.00,,,0.01,meteohub,2013-10-28 23:56:00,
2013-10-28 20:01:00,58.5,53.6,30.19,West,271,0.0,1.0,84,0.00,,,0.01,meteohub,2013-10-29 00:01:00,
2013-10-28 20:06:00,58.5,53.6,30.19,West,271,0.0,1.0,84,0.00,,,0.01,meteohub,2013-10-29 00:06:00,
2013-10-28 20:12:00,58.5,53.2,30.20,West,271,0.0,1.0,83,0.00,,,0.01,meteohub,2013-10-29 00:12:00,
2013-10-28 20:17:00,58.6,53.8,30.20,West,271,0.0,1.0,84,0.00,,,0.01,meteohub,2013-10-29 00:17:00,
2013-10-28 20:22:00,58.6,53.8,30.20,West,271,0.0,1.0,84,0.00,,,0.01,meteohub,2013-10-29 00:22:00,
2013-10-28 20:27:00,58.8,54.0,30.20,West,271,0.0,0.0,84,0.00,,,0.01,meteohub,2013-10-29 00:27:00,
2013-10-28 20:32:00,58.8,54.0,30.20,North,6,0.0,0.0,84,0.00,,,0.01,meteohub,2013-10-29 00:32:00,
2013-10-28 20:37:00,58.6,54.1,30.21,North,6,0.0,1.0,85,0.00,,,0.01,meteohub,2013-10-29 00:37:00,
2013-10-28 20:42:00,58.6,54.1,30.21,North,6,0.0,1.0,85,0.00,,,0.01,meteohub,2013-10-29 00:42:00,
2013-10-28 20:47:00,58.6,54.1,30.21,North,6,0.0,0.0,85,0.00,,,0.01,meteohub,2013-10-29 00:47:00,
2013-10-28 20:52:00,58.5,54.0,30.21,North,6,0.0,0.0,85,0.00,,,0.01,meteohub,2013-10-29 00:52:00,
2013-10-28 20:57:00,58.3,54.1,30.21,North,6,0.0,0.0,86,0.00,,,0.01,meteohub,2013-10-29 00:57:00,
2013-10-28 21:02:00,58.3,54.5,30.21,North,6,0.0,1.0,87,0.00,,,0.01,meteohub,2013-10-29 01:02:00,
2013-10-28 21:07:00,57.9,54.1,30.21,North,7,0.0,1.0,87,0.00,,,0.01,meteohub,2013-10-29 01:07:00,
2013-10-28 21:12:00,57.9,54.1,30.21,North,7,0.0,1.0,87,0.00,,,0.01,meteohub,2013-10-29 01:12:00,
2013-10-28 21:17:00,57.7,54.1,30.21,North,6,0.0,0.0,88,0.00,,,0.01,meteohub,2013-10-29 01:17:00,
2013-10-28 21:22:00,57.7,54.1,30.21,North,6,0.0,0.0,88,0.00,,,0.01,meteohub,2013-10-29 01:22:00,
2013-10-28 21:27:00,57.7,54.1,30.22,North,6,0.0,0.0,88,0.00,,,0.01,meteohub,2013-10-29 01:27:00,
2013-10-28 21:32:00,57.6,54.0,30.22,North,6,0.0,0.0,88,0.00,,,0.01,meteohub,2013-10-29 01:32:00,
2013-10-28 21:37:00,57.6,54.0,30.22,North,6,0.0,0.0,88,0.00,,,0.01,meteohub,2013-10-29 01:37:00,
2013-10-28 21:42:00,57.6,54.3,30.22,North,6,0.0,0.0,89,0.00,,,0.01,meteohub,2013-10-29 01:42:00,
2013-10-28 21:47:00,57.4,54.1,30.22,North,6,0.0,0.0,89,0.00,,,0.01,meteohub,2013-10-29 01:47:00,
2013-10-28 21:52:00,57.4,54.1,30.22,North,7,0.0,0.0,89,0.00,,,0.01,meteohub,2013-10-29 01:52:00,
2013-10-28 21:57:00,57.4,54.1,30.22,North,6,0.0,0.0,89,0.00,,,0.01,meteohub,2013-10-29 01:57:00,
2013-10-28 22:02:00,57.2,54.0,30.21,North,6,0.0,0.0,89,0.00,,,0.01,meteohub,2013-10-29 02:02:00,
2013-10-28 22:07:00,57.4,54.1,30.21,North,7,0.0,0.0,89,0.00,,,0.01,meteohub,2013-10-29 02:07:00,
2013-10-28 22:12:00,57.2,54.0,30.21,North,6,0.0,0.0,89,0.00,,,0.01,meteohub,2013-10-29 02:12:00,
2013-10-28 22:17:00,57.2,54.0,30.21,North,6,0.0,0.0,89,0.00,,,0.01,meteohub,2013-10-29 02:17:00,
2013-10-28 22:22:00,57.0,53.8,30.22,North,6,0.0,0.0,89,0.00,,,0.01,meteohub,2013-10-29 02:22:00,
2013-10-28 22:27:00,57.0,54.1,30.22,North,6,0.0,0.0,90,0.00,,,0.01,meteohub,2013-10-29 02:27:00,
2013-10-28 22:32:00,57.0,54.1,30.21,North,7,0.0,0.0,90,0.00,,,0.01,meteohub,2013-10-29 02:32:00,
2013-10-28 22:37:00,56.8,54.3,30.21,North,6,0.0,0.0,91,0.00,,,0.01,meteohub,2013-10-29 02:37:00,
2013-10-28 22:42:00,56.7,54.1,30.22,North,6,0.0,0.0,91,0.00,,,0.01,meteohub,2013-10-29 02:42:00,
2013-10-28 22:48:00,56.7,54.1,30.21,North,6,0.0,0.0,91,0.00,,,0.01,meteohub,2013-10-29 02:48:00,
2013-10-28 22:53:00,56.7,54.1,30.22,North,6,0.0,0.0,91,0.00,,,0.01,meteohub,2013-10-29 02:53:00,
2013-10-28 22:58:00,56.7,54.1,30.22,North,6,0.0,0.0,91,0.00,,,0.01,meteohub,2013-10-29 02:58:00,
2013-10-28 23:03:00,56.7,54.1,30.22,North,6,0.0,0.0,91,0.00,,,0.01,meteohub,2013-10-29 03:03:00,
2013-10-28 23:08:00,56.5,54.0,30.22,North,6,0.0,0.0,91,0.00,,,0.01,meteohub,2013-10-29 03:08:00,
2013-10-28 23:13:00,56.5,54.1,30.22,North,6,0.0,0.0,92,0.00,,,0.01,meteohub,2013-10-29 03:13:00,
2013-10-28 23:18:00,56.3,54.0,30.22,North,6,0.0,0.0,92,0.00,,,0.01,meteohub,2013-10-29 03:18:00,
2013-10-28 23:23:00,56.3,54.0,30.22,North,6,0.0,0.0,92,0.00,,,0.01,meteohub,2013-10-29 03:23:00,
2013-10-28 23:28:00,56.1,54.1,30.22,North,6,0.0,0.0,93,0.00,,,0.01,meteohub,2013-10-29 03:28:00,
2013-10-28 23:33:00,55.9,54.0,30.21,North,6,0.0,0.0,93,0.00,,,0.01,meteohub,2013-10-29 03:33:00,
2013-10-28 23:38:00,55.9,54.0,30.22,North,6,0.0,0.0,93,0.00,,,0.01,meteohub,2013-10-29 03:38:00,
2013-10-28 23:43:00,55.8,53.8,30.21,North,6,0.0,0.0,93,0.00,,,0.01,meteohub,2013-10-29 03:43:00,
2013-10-28 23:49:00,55.8,53.8,30.21,North,6,0.0,0.0,93,0.00,,,0.01,meteohub,2013-10-29 03:49:00,
2013-10-28 23:54:00,55.8,53.8,30.21,North,6,0.0,0.0,93,0.00,,,0.01,meteohub,2013-10-29 03:54:00,
2013-10-28 23:59:00,55.8,53.8,30.21,North,6,0.0,0.0,93,0.00,,,0.01,meteohub,2013-10-29 03:59:00,